Time;durP1;ratioP1;P1;durP2;ratioP2;P2;SDS_P1;SDS_P2;PMS_P1;PMS_P2;Temp;Humidity;BMP_temperature;BMP_pressure;BME280_temperature;BME280_humidity;BME280_pressure;Samples;Min_cycle;Max_cycle;Signal;HPM_P1;HPM_P2
2021/04/29 00:01:57;;;;;;;44.88;28.60;;;;;;;;;;4955104;28;20397;-50
2021/04/29 00:04:26;;;;;;;35.75;23.45;;;;;;;;;;4956284;28;20039;-51
2021/04/29 00:06:52;;;;;;;91.45;56.45;;;;;;;;;;4956189;29;20420;-50
2021/04/29 00:09:18;;;;;;;32.25;21.52;;;;;;;;;;4956516;28;20031;-50
2021/04/29 00:11:44;;;;;;;30.13;21.63;;;;;;;;;;4956387;29;20031;-49
2021/04/29 00:14:11;;;;;;;32.13;21.73;;;;;;;;;;4956417;29;20089;-50
2021/04/29 00:16:38;;;;;;;38.53;23.23;;;;;;;;;;4956928;29;20424;-47
2021/04/29 00:19:04;;;;;;;33.17;22.17;;;;;;;;;;4956802;29;20071;-48
2021/04/29 00:21:30;;;;;;;31.77;22.23;;;;;;;;;;4956784;29;20074;-48
2021/04/29 00:23:56;;;;;;;28.45;20.08;;;;;;;;;;4956740;29;20102;-49
2021/04/29 00:26:22;;;;;;;42.92;24.85;;;;;;;;;;4956803;29;20019;-48
2021/04/29 00:28:48;;;;;;;34.00;20.88;;;;;;;;;;4956125;28;20054;-49
2021/04/29 00:31:15;;;;;;;45.72;28.02;;;;;;;;;;4956349;29;20023;-48
2021/04/29 00:33:41;;;;;;;32.45;21.92;;;;;;;;;;4956416;29;20027;-48
2021/04/29 00:36:07;;;;;;;28.70;19.42;;;;;;;;;;4955588;29;20042;-47
2021/04/29 00:38:33;;;;;;;32.40;21.75;;;;;;;;;;4955948;28;20031;-48
2021/04/29 00:41:01;;;;;;;31.83;20.23;;;;;;;;;;4956250;28;20027;-48
2021/04/29 00:43:27;;;;;;;40.30;26.55;;;;;;;;;;4955567;29;20061;-48
2021/04/29 00:45:53;;;;;;;31.15;20.88;;;;;;;;;;4955923;29;20083;-48
2021/04/29 00:48:22;;;;;;;28.35;19.20;;;;;;;;;;4956241;29;20031;-48
2021/04/29 00:50:49;;;;;;;31.23;19.70;;;;;;;;;;4955266;28;20024;-48
2021/04/29 00:53:15;;;;;;;34.03;24.30;;;;;;;;;;4955283;28;20106;-49
2021/04/29 00:55:42;;;;;;;41.97;25.40;;;;;;;;;;4955418;29;20029;-47
2021/04/29 00:58:08;;;;;;;39.80;25.50;;;;;;;;;;4954974;29;20067;-48
2021/04/29 01:00:36;;;;;;;29.13;19.00;;;;;;;;;;4955877;29;20051;-48
2021/04/29 01:03:04;;;;;;;26.33;18.00;;;;;;;;;;4955856;28;20037;-48
2021/04/29 01:05:33;;;;;;;36.78;22.50;;;;;;;;;;4955300;29;20031;-48
2021/04/29 01:08:04;;;;;;;28.27;19.35;;;;;;;;;;4955006;28;20039;-48
2021/04/29 01:10:38;;;;;;;25.08;18.00;;;;;;;;;;4955160;29;20041;-49
2021/04/29 01:13:17;;;;;;;32.28;20.52;;;;;;;;;;4955013;29;20135;-48
2021/04/29 01:15:43;;;;;;;24.48;17.52;;;;;;;;;;4955182;29;20023;-48
2021/04/29 01:18:13;;;;;;;24.73;17.83;;;;;;;;;;4954164;28;20035;-49
2021/04/29 01:20:53;;;;;;;38.58;25.00;;;;;;;;;;4955494;29;20041;-48
2021/04/29 01:23:29;;;;;;;29.65;19.85;;;;;;;;;;4955034;29;20055;-48
2021/04/29 01:26:00;;;;;;;29.27;19.85;;;;;;;;;;4955132;29;20015;-48
2021/04/29 01:28:27;;;;;;;36.72;24.40;;;;;;;;;;4955006;28;20035;-48
2021/04/29 01:30:54;;;;;;;28.63;19.55;;;;;;;;;;4955419;29;20036;-48
2021/04/29 01:33:20;;;;;;;26.73;18.23;;;;;;;;;;4955621;29;20031;-49
2021/04/29 01:35:47;;;;;;;62.15;35.53;;;;;;;;;;4953502;28;20031;-48
2021/04/29 01:38:13;;;;;;;21.42;14.80;;;;;;;;;;4954494;28;20400;-48
2021/04/29 01:40:39;;;;;;;37.90;22.13;;;;;;;;;;4954583;28;20039;-48
2021/04/29 01:43:07;;;;;;;27.90;18.67;;;;;;;;;;4954636;29;20065;-49
2021/04/29 01:45:33;;;;;;;18.50;13.70;;;;;;;;;;4955056;29;20024;-48
2021/04/29 01:48:00;;;;;;;21.15;14.63;;;;;;;;;;4955178;29;20383;-49
2021/04/29 01:50:26;;;;;;;21.63;15.27;;;;;;;;;;4955532;29;20038;-48
2021/04/29 01:52:52;;;;;;;20.58;13.98;;;;;;;;;;4954715;29;20034;-47
2021/04/29 01:55:18;;;;;;;25.85;17.45;;;;;;;;;;4954572;29;20498;-47
2021/04/29 01:57:45;;;;;;;19.08;12.25;;;;;;;;;;4954664;29;20030;-47
2021/04/29 02:00:11;;;;;;;19.90;12.52;;;;;;;;;;4954786;29;20050;-47
2021/04/29 02:02:38;;;;;;;21.00;15.40;;;;;;;;;;4955169;28;20079;-47
2021/04/29 02:05:05;;;;;;;15.70;11.35;;;;;;;;;;4955603;28;20023;-47
2021/04/29 02:07:31;;;;;;;20.30;13.48;;;;;;;;;;4954710;29;20528;-47
2021/04/29 02:09:57;;;;;;;19.70;13.60;;;;;;;;;;4954299;29;20429;-47
2021/04/29 02:12:24;;;;;;;16.13;11.20;;;;;;;;;;4954475;29;20507;-48
2021/04/29 02:14:56;;;;;;;15.38;10.65;;;;;;;;;;4954712;29;20019;-48
2021/04/29 02:17:30;;;;;;;23.35;14.68;;;;;;;;;;4955026;29;20384;-47
2021/04/29 02:19:57;;;;;;;23.63;15.70;;;;;;;;;;4954213;29;20058;-48
2021/04/29 02:22:25;;;;;;;14.48;9.45;;;;;;;;;;4952721;28;20042;-49
2021/04/29 02:24:54;;;;;;;17.15;11.65;;;;;;;;;;4954540;29;20106;-48
2021/04/29 02:27:20;;;;;;;17.90;12.30;;;;;;;;;;4954425;29;20058;-47
2021/04/29 02:29:47;;;;;;;17.15;11.48;;;;;;;;;;4954488;29;20086;-48
2021/04/29 02:32:14;;;;;;;14.95;10.50;;;;;;;;;;4955170;29;20023;-48
2021/04/29 02:34:41;;;;;;;14.48;10.70;;;;;;;;;;4954849;29;20392;-48
2021/04/29 02:37:07;;;;;;;24.30;13.55;;;;;;;;;;4953885;29;20321;-49
2021/04/29 02:39:34;;;;;;;14.25;10.73;;;;;;;;;;4954033;28;20031;-49
2021/04/29 02:42:00;;;;;;;16.27;10.50;;;;;;;;;;4954049;29;20062;-48
2021/04/29 02:44:26;;;;;;;16.58;10.60;;;;;;;;;;4954403;29;20061;-48
2021/04/29 02:46:53;;;;;;;13.93;10.32;;;;;;;;;;4955049;28;20080;-48
2021/04/29 02:49:19;;;;;;;15.52;11.40;;;;;;;;;;4954077;29;20046;-48
2021/04/29 02:51:45;;;;;;;16.70;10.38;;;;;;;;;;4954019;29;20329;-48
2021/04/29 02:54:12;;;;;;;13.68;9.73;;;;;;;;;;4954341;29;20349;-48
2021/04/29 02:56:41;;;;;;;18.65;9.85;;;;;;;;;;4955096;29;20030;-48
2021/04/29 02:59:08;;;;;;;17.00;11.73;;;;;;;;;;4954806;28;20035;-48
2021/04/29 03:01:35;;;;;;;18.65;9.90;;;;;;;;;;4954140;29;20023;-47
2021/04/29 03:04:01;;;;;;;13.60;9.45;;;;;;;;;;4954220;29;20103;-49
2021/04/29 03:06:28;;;;;;;13.43;10.10;;;;;;;;;;4954561;28;20175;-48
2021/04/29 03:08:54;;;;;;;21.58;11.43;;;;;;;;;;4954063;29;20023;-47
2021/04/29 03:11:20;;;;;;;17.35;11.68;;;;;;;;;;4953989;29;20027;-47
2021/04/29 03:13:46;;;;;;;18.60;12.15;;;;;;;;;;4953879;28;20023;-47
2021/04/29 03:16:12;;;;;;;22.08;11.45;;;;;;;;;;4957932;29;20031;-47
2021/04/29 03:18:39;;;;;;;20.63;11.55;;;;;;;;;;4958164;28;20030;-48
2021/04/29 03:21:05;;;;;;;22.92;11.85;;;;;;;;;;4958085;29;20114;-49
2021/04/29 03:23:32;;;;;;;22.20;11.57;;;;;;;;;;4958200;28;20023;-49
2021/04/29 03:25:58;;;;;;;16.98;11.25;;;;;;;;;;4958239;29;20105;-48
2021/04/29 03:28:24;;;;;;;15.98;10.63;;;;;;;;;;4957283;29;20027;-48
2021/04/29 03:30:50;;;;;;;14.88;10.27;;;;;;;;;;4957916;29;20027;-49
2021/04/29 03:33:17;;;;;;;17.90;11.40;;;;;;;;;;4957879;29;20068;-49
2021/04/29 03:35:43;;;;;;;17.35;10.50;;;;;;;;;;4957674;28;20035;-49
2021/04/29 03:38:09;;;;;;;13.60;10.05;;;;;;;;;;4957526;29;20031;-49
2021/04/29 03:40:36;;;;;;;12.13;9.82;;;;;;;;;;4956846;29;20035;-49
2021/04/29 03:43:03;;;;;;;16.85;10.38;;;;;;;;;;4957065;29;20027;-49
2021/04/29 03:45:29;;;;;;;14.50;10.65;;;;;;;;;;4957298;29;20030;-48
2021/04/29 03:47:55;;;;;;;18.17;10.57;;;;;;;;;;4957126;29;20495;-50
2021/04/29 03:50:21;;;;;;;18.10;10.68;;;;;;;;;;4957152;28;20085;-48
2021/04/29 03:52:47;;;;;;;15.23;9.02;;;;;;;;;;4956691;29;20079;-48
2021/04/29 03:55:13;;;;;;;14.45;9.45;;;;;;;;;;4956834;29;20023;-48
2021/04/29 03:57:41;;;;;;;16.60;9.40;;;;;;;;;;4956821;29;20166;-48
2021/04/29 04:00:08;;;;;;;15.88;9.82;;;;;;;;;;4956962;29;20043;-48
2021/04/29 04:02:34;;;;;;;32.67;14.50;;;;;;;;;;4957358;29;20032;-49
2021/04/29 04:05:00;;;;;;;39.78;15.65;;;;;;;;;;4956465;29;20498;-48
2021/04/29 04:07:26;;;;;;;22.85;12.55;;;;;;;;;;4956089;28;20150;-48
2021/04/29 04:09:52;;;;;;;11.77;9.38;;;;;;;;;;4956604;29;20456;-48
2021/04/29 04:12:18;;;;;;;10.50;8.77;;;;;;;;;;4956569;29;20369;-48
2021/04/29 04:14:44;;;;;;;13.85;9.60;;;;;;;;;;4956413;29;20512;-48
2021/04/29 04:17:11;;;;;;;18.65;10.45;;;;;;;;;;4956841;28;20038;-48
2021/04/29 04:19:37;;;;;;;12.88;9.38;;;;;;;;;;4956680;29;20062;-48
2021/04/29 04:22:03;;;;;;;13.32;10.02;;;;;;;;;;4956057;28;20026;-48
2021/04/29 04:24:29;;;;;;;11.60;9.68;;;;;;;;;;4956040;28;20031;-48
2021/04/29 04:26:55;;;;;;;12.65;9.40;;;;;;;;;;4955085;28;20027;-49
2021/04/29 04:29:21;;;;;;;16.23;10.40;;;;;;;;;;4956065;29;20054;-48
2021/04/29 04:31:47;;;;;;;17.42;10.32;;;;;;;;;;4956677;29;20081;-48
2021/04/29 04:34:13;;;;;;;11.20;9.68;;;;;;;;;;4956252;29;20042;-48
2021/04/29 04:36:39;;;;;;;13.15;9.73;;;;;;;;;;4955792;29;20034;-48
2021/04/29 04:39:06;;;;;;;16.20;10.57;;;;;;;;;;4955646;29;20036;-49
2021/04/29 04:41:32;;;;;;;12.88;9.98;;;;;;;;;;4956083;29;20042;-49
2021/04/29 04:43:58;;;;;;;13.80;10.18;;;;;;;;;;4955670;29;20046;-50
2021/04/29 04:46:25;;;;;;;19.25;10.90;;;;;;;;;;4956518;28;20110;-49
2021/04/29 04:48:51;;;;;;;13.93;10.65;;;;;;;;;;4956411;29;20031;-50
2021/04/29 04:51:17;;;;;;;17.42;12.38;;;;;;;;;;4956105;29;20360;-49
2021/04/29 04:53:43;;;;;;;15.93;10.82;;;;;;;;;;4955619;29;20031;-49
2021/04/29 04:56:10;;;;;;;15.52;11.45;;;;;;;;;;4955430;29;20054;-49
2021/04/29 04:58:36;;;;;;;19.77;13.38;;;;;;;;;;4953946;28;20411;-49
2021/04/29 05:01:02;;;;;;;17.70;12.27;;;;;;;;;;4955454;28;20439;-49
2021/04/29 05:03:28;;;;;;;20.23;13.35;;;;;;;;;;4955355;29;20086;-49
2021/04/29 05:05:55;;;;;;;19.13;12.93;;;;;;;;;;4955200;29;20031;-49
2021/04/29 05:08:21;;;;;;;16.77;11.38;;;;;;;;;;4955329;28;20037;-49
2021/04/29 05:10:47;;;;;;;14.77;12.15;;;;;;;;;;4955411;28;20031;-49
2021/04/29 05:13:13;;;;;;;17.63;13.35;;;;;;;;;;4955312;28;20027;-49
2021/04/29 05:15:39;;;;;;;15.35;12.02;;;;;;;;;;4955020;29;20023;-49
2021/04/29 05:18:05;;;;;;;23.10;14.90;;;;;;;;;;4954926;29;20154;-49
2021/04/29 05:20:31;;;;;;;22.60;15.25;;;;;;;;;;4954898;29;20067;-52
2021/04/29 05:22:58;;;;;;;21.27;14.57;;;;;;;;;;4954896;29;20234;-48
2021/04/29 05:25:24;;;;;;;24.33;14.63;;;;;;;;;;4955083;29;20113;-48
2021/04/29 05:27:54;;;;;;;19.70;13.32;;;;;;;;;;4954837;29;20121;-48
2021/04/29 05:30:21;;;;;;;17.60;13.40;;;;;;;;;;4954739;29;20023;-48
2021/04/29 05:32:48;;;;;;;41.38;24.80;;;;;;;;;;4954823;29;20042;-48
2021/04/29 05:35:14;;;;;;;44.20;27.33;;;;;;;;;;4955494;28;20090;-48
2021/04/29 05:37:40;;;;;;;24.40;17.85;;;;;;;;;;4954628;28;20023;-49
2021/04/29 05:40:07;;;;;;;39.47;24.90;;;;;;;;;;4954514;29;20077;-49
2021/04/29 05:42:33;;;;;;;27.35;18.58;;;;;;;;;;4954714;29;20023;-48
2021/04/29 05:45:01;;;;;;;35.28;23.13;;;;;;;;;;4954723;29;20055;-49
2021/04/29 05:47:27;;;;;;;27.58;19.17;;;;;;;;;;4955342;29;20060;-49
2021/04/29 05:49:53;;;;;;;56.58;37.03;;;;;;;;;;4955444;29;20027;-49
2021/04/29 05:52:19;;;;;;;23.75;16.33;;;;;;;;;;4954629;28;20019;-48
2021/04/29 05:54:46;;;;;;;26.38;19.65;;;;;;;;;;4954777;29;20027;-49
2021/04/29 05:57:14;;;;;;;25.17;16.90;;;;;;;;;;4954644;29;20047;-50
2021/04/29 05:59:40;;;;;;;22.92;15.05;;;;;;;;;;4954739;28;20502;-49
2021/04/29 06:02:06;;;;;;;27.00;17.70;;;;;;;;;;4955219;29;20020;-48
2021/04/29 06:04:32;;;;;;;23.60;17.05;;;;;;;;;;4954679;29;20023;-48
2021/04/29 06:06:58;;;;;;;20.63;15.70;;;;;;;;;;4954340;28;20043;-49
2021/04/29 06:09:24;;;;;;;22.88;16.20;;;;;;;;;;4954429;29;20027;-48
2021/04/29 06:11:50;;;;;;;19.38;13.88;;;;;;;;;;4954598;29;20027;-47
2021/04/29 06:14:16;;;;;;;19.23;15.10;;;;;;;;;;4954458;29;20086;-48
2021/04/29 06:16:43;;;;;;;27.85;21.02;;;;;;;;;;4954158;29;20027;-49
2021/04/29 06:19:10;;;;;;;22.95;16.05;;;;;;;;;;4954256;29;20039;-48
2021/04/29 06:21:36;;;;;;;16.55;13.75;;;;;;;;;;4954210;29;20027;-48
2021/04/29 06:24:02;;;;;;;27.13;19.35;;;;;;;;;;4954327;28;20496;-49
2021/04/29 06:26:30;;;;;;;20.17;14.43;;;;;;;;;;4954237;29;20031;-48
2021/04/29 06:28:56;;;;;;;20.23;13.90;;;;;;;;;;4954104;29;20027;-48
2021/04/29 06:31:22;;;;;;;22.13;15.43;;;;;;;;;;4954972;29;20034;-48
2021/04/29 06:33:48;;;;;;;26.08;15.20;;;;;;;;;;4954529;29;20070;-49
2021/04/29 06:36:14;;;;;;;22.75;16.70;;;;;;;;;;4953969;29;20443;-49
2021/04/29 06:38:40;;;;;;;26.25;17.15;;;;;;;;;;4953906;28;20440;-47
2021/04/29 06:41:06;;;;;;;37.15;25.15;;;;;;;;;;4954048;29;20045;-47
2021/04/29 06:43:33;;;;;;;23.42;16.02;;;;;;;;;;4954142;29;20130;-46
2021/04/29 06:45:59;;;;;;;26.33;17.08;;;;;;;;;;4953874;29;20436;-46
2021/04/29 06:48:25;;;;;;;19.35;15.68;;;;;;;;;;4954111;28;20361;-46
2021/04/29 06:50:51;;;;;;;21.60;15.15;;;;;;;;;;4957209;29;20061;-46
2021/04/29 06:53:17;;;;;;;25.52;17.75;;;;;;;;;;4957507;28;20136;-46
2021/04/29 06:55:43;;;;;;;21.70;15.00;;;;;;;;;;4957650;29;20027;-45
2021/04/29 06:58:10;;;;;;;29.30;16.88;;;;;;;;;;4957690;29;20027;-45
2021/04/29 07:00:36;;;;;;;29.05;17.20;;;;;;;;;;4957433;29;20126;-46
2021/04/29 07:03:02;;;;;;;21.38;15.90;;;;;;;;;;4957630;29;20030;-46
2021/04/29 07:05:28;;;;;;;21.00;15.35;;;;;;;;;;4957529;29;20369;-45
2021/04/29 07:07:54;;;;;;;24.42;16.30;;;;;;;;;;4957659;29;20130;-47
2021/04/29 07:10:21;;;;;;;21.95;16.20;;;;;;;;;;4958261;29;20086;-49
2021/04/29 07:12:48;;;;;;;20.70;15.93;;;;;;;;;;4958531;29;20027;-48
2021/04/29 07:15:14;;;;;;;20.90;15.75;;;;;;;;;;4958264;29;20031;-45
2021/04/29 07:17:42;;;;;;;20.58;15.52;;;;;;;;;;4958379;28;20020;-48
2021/04/29 07:20:08;;;;;;;23.40;16.75;;;;;;;;;;4957958;29;20077;-46
2021/04/29 07:22:34;;;;;;;20.63;15.75;;;;;;;;;;4957871;29;20027;-48
2021/04/29 07:25:00;;;;;;;22.83;16.20;;;;;;;;;;4957853;28;20050;-48
2021/04/29 07:27:26;;;;;;;21.92;15.57;;;;;;;;;;4957954;29;20031;-48
2021/04/29 07:29:52;;;;;;;21.45;15.70;;;;;;;;;;4957911;29;20028;-46
2021/04/29 07:32:21;;;;;;;18.65;15.45;;;;;;;;;;4968415;28;20027;-48
2021/04/29 07:34:47;;;;;;;17.92;13.85;;;;;;;;;;4977308;28;20031;-46
2021/04/29 07:37:16;;;;;;;20.90;15.85;;;;;;;;;;4977083;28;20058;-47
2021/04/29 07:39:42;;;;;;;22.63;15.73;;;;;;;;;;4977120;28;20130;-47
2021/04/29 07:42:08;;;;;;;39.33;29.52;;;;;;;;;;4976835;28;20019;-47
2021/04/29 07:44:34;;;;;;;32.28;22.15;;;;;;;;;;4976750;28;20023;-46
2021/04/29 07:47:00;;;;;;;19.95;15.88;;;;;;;;;;4976654;28;20030;-46
2021/04/29 07:49:27;;;;;;;44.72;27.35;;;;;;;;;;4976648;28;20089;-49
2021/04/29 07:51:55;;;;;;;36.55;22.15;;;;;;;;;;4976679;28;20077;-47
2021/04/29 07:54:21;;;;;;;26.92;18.42;;;;;;;;;;4976580;28;20026;-48
2021/04/29 07:56:47;;;;;;;22.38;16.63;;;;;;;;;;4976681;28;20026;-45
2021/04/29 07:59:14;;;;;;;18.33;14.93;;;;;;;;;;4976471;28;20117;-46
2021/04/29 08:01:40;;;;;;;24.70;17.88;;;;;;;;;;4976729;28;20412;-45
2021/04/29 08:04:07;;;;;;;25.33;18.48;;;;;;;;;;4976562;28;20037;-46
2021/04/29 08:06:33;;;;;;;25.38;19.15;;;;;;;;;;4976335;28;20522;-47
2021/04/29 08:08:59;;;;;;;19.67;16.48;;;;;;;;;;4976271;28;20023;-47
2021/04/29 08:11:25;;;;;;;18.73;15.23;;;;;;;;;;4976535;28;20037;-47
2021/04/29 08:13:52;;;;;;;26.45;16.05;;;;;;;;;;4976309;28;20388;-45
2021/04/29 08:16:19;;;;;;;39.58;27.88;;;;;;;;;;4976075;28;20027;-44
2021/04/29 08:18:47;;;;;;;25.60;19.27;;;;;;;;;;4976156;28;20151;-46
2021/04/29 08:21:13;;;;;;;23.48;17.60;;;;;;;;;;4976244;28;20031;-47
2021/04/29 08:23:39;;;;;;;29.92;20.65;;;;;;;;;;4975905;28;20487;-47
2021/04/29 08:26:05;;;;;;;24.38;16.92;;;;;;;;;;4976364;28;20083;-48
2021/04/29 08:28:31;;;;;;;18.50;15.55;;;;;;;;;;4976219;28;20088;-47
2021/04/29 08:30:57;;;;;;;25.13;18.92;;;;;;;;;;4975979;28;20026;-48
2021/04/29 08:33:24;;;;;;;22.08;18.17;;;;;;;;;;4976125;28;20054;-48
2021/04/29 08:35:50;;;;;;;19.63;15.25;;;;;;;;;;4976036;28;20023;-48
2021/04/29 08:38:16;;;;;;;18.58;15.43;;;;;;;;;;4975864;28;20392;-48
2021/04/29 08:40:42;;;;;;;20.95;16.77;;;;;;;;;;4959143;28;20035;-47
2021/04/29 08:43:08;;;;;;;20.75;16.98;;;;;;;;;;4976045;28;20023;-48
2021/04/29 08:45:34;;;;;;;24.20;17.23;;;;;;;;;;4976099;28;20439;-48
2021/04/29 08:48:00;;;;;;;23.35;17.10;;;;;;;;;;4976105;28;20085;-50
2021/04/29 08:50:28;;;;;;;20.65;16.92;;;;;;;;;;4975748;28;20038;-47
2021/04/29 08:52:54;;;;;;;23.10;16.45;;;;;;;;;;4975901;28;20529;-47
2021/04/29 08:55:22;;;;;;;20.48;16.35;;;;;;;;;;4975844;28;20027;-48
2021/04/29 08:57:48;;;;;;;18.58;14.85;;;;;;;;;;4975632;28;20022;-48
2021/04/29 09:00:15;;;;;;;21.38;16.23;;;;;;;;;;4975574;28;20042;-48
2021/04/29 09:02:42;;;;;;;21.10;16.63;;;;;;;;;;4975752;28;20026;-47
2021/04/29 09:05:09;;;;;;;21.02;16.75;;;;;;;;;;4975486;28;20031;-47
2021/04/29 09:07:35;;;;;;;19.85;16.45;;;;;;;;;;4975458;28;20074;-48
2021/04/29 09:10:01;;;;;;;26.50;17.10;;;;;;;;;;4975536;28;20439;-48
2021/04/29 09:12:44;;;;;;;22.33;15.40;;;;;;;;;;4974943;28;20030;-49
2021/04/29 09:15:30;;;;;;;20.10;14.55;;;;;;;;;;4975535;28;20439;-47
2021/04/29 09:18:07;;;;;;;21.65;15.57;;;;;;;;;;4974937;28;20037;-48
2021/04/29 09:20:33;;;;;;;16.63;13.35;;;;;;;;;;4975339;28;20074;-49
2021/04/29 09:23:06;;;;;;;16.30;12.07;;;;;;;;;;4975341;28;20357;-48
2021/04/29 09:25:33;;;;;;;19.52;14.43;;;;;;;;;;4975112;28;20086;-48
2021/04/29 09:27:59;;;;;;;19.70;13.38;;;;;;;;;;4975036;28;20031;-49
2021/04/29 09:30:26;;;;;;;17.55;13.20;;;;;;;;;;4974969;28;20030;-49
2021/04/29 09:32:53;;;;;;;16.52;12.63;;;;;;;;;;4974854;28;20022;-48
2021/04/29 09:35:22;;;;;;;18.17;12.43;;;;;;;;;;4974884;28;20023;-48
2021/04/29 09:37:49;;;;;;;15.60;12.75;;;;;;;;;;4974949;28;20094;-47
2021/04/29 09:40:25;;;;;;;20.25;14.05;;;;;;;;;;4974998;28;20387;-48
2021/04/29 09:42:52;;;;;;;17.90;13.25;;;;;;;;;;4975034;28;20475;-48
2021/04/29 09:45:34;;;;;;;17.02;11.50;;;;;;;;;;4975058;28;20155;-49
2021/04/29 09:48:01;;;;;;;16.08;11.88;;;;;;;;;;4975112;28;20030;-49
2021/04/29 09:50:29;;;;;;;15.35;11.10;;;;;;;;;;4974885;28;20364;-49
2021/04/29 09:53:01;;;;;;;21.73;11.73;;;;;;;;;;4974659;28;20022;-49
2021/04/29 09:55:28;;;;;;;16.33;11.32;;;;;;;;;;4974672;28;20396;-48
2021/04/29 09:58:18;;;;;;;14.00;10.10;;;;;;;;;;4974704;28;20026;-49
2021/04/29 10:00:48;;;;;;;11.68;7.90;;;;;;;;;;4974832;28;20042;-49
2021/04/29 10:03:15;;;;;;;11.07;7.90;;;;;;;;;;4974518;28;20162;-49
2021/04/29 10:05:41;;;;;;;12.75;9.18;;;;;;;;;;4974454;28;20026;-47
2021/04/29 10:08:11;;;;;;;15.52;8.80;;;;;;;;;;4974679;28;20059;-48
2021/04/29 10:10:39;;;;;;;14.57;9.50;;;;;;;;;;4974431;28;20030;-49
2021/04/29 10:13:06;;;;;;;13.48;8.90;;;;;;;;;;4974561;28;20027;-46
2021/04/29 10:15:34;;;;;;;19.05;11.35;;;;;;;;;;4974516;28;20019;-47
2021/04/29 10:18:00;;;;;;;12.90;8.65;;;;;;;;;;4974617;28;20035;-48
2021/04/29 10:20:27;;;;;;;12.43;10.05;;;;;;;;;;4974354;28;20134;-48
2021/04/29 10:22:53;;;;;;;13.68;10.57;;;;;;;;;;4974480;28;20380;-48
2021/04/29 10:25:30;;;;;;;14.98;9.88;;;;;;;;;;4978274;28;20542;-48
2021/04/29 10:27:57;;;;;;;16.83;11.23;;;;;;;;;;4978287;28;20033;-47
2021/04/29 10:30:33;;;;;;;17.17;11.32;;;;;;;;;;4978292;28;20420;-48
2021/04/29 10:32:59;;;;;;;15.68;11.43;;;;;;;;;;4978467;28;20034;-48
2021/04/29 10:35:28;;;;;;;18.70;12.98;;;;;;;;;;4978300;28;20038;-48
2021/04/29 10:38:01;;;;;;;20.60;11.75;;;;;;;;;;4978183;28;20490;-49
2021/04/29 10:40:37;;;;;;;19.40;10.63;;;;;;;;;;4978228;28;20165;-48
2021/04/29 10:43:04;;;;;;;9.50;6.60;;;;;;;;;;4978009;28;20046;-48
2021/04/29 10:45:30;;;;;;;9.93;7.20;;;;;;;;;;4978219;28;20030;-49
2021/04/29 10:48:24;;;;;;;10.63;6.38;;;;;;;;;;4978088;28;20027;-49
2021/04/29 10:50:51;;;;;;;13.15;8.75;;;;;;;;;;4975853;28;20122;-48
2021/04/29 10:53:30;;;;;;;13.73;10.32;;;;;;;;;;4977910;28;20151;-49
2021/04/29 10:56:02;;;;;;;14.25;6.78;;;;;;;;;;4977978;28;20162;-52
2021/04/29 10:58:28;;;;;;;27.92;18.50;;;;;;;;;;4977999;28;20026;-51
2021/04/29 11:01:04;;;;;;;17.27;7.82;;;;;;;;;;4977696;28;20046;-52
2021/04/29 11:03:34;;;;;;;10.02;7.38;;;;;;;;;;4977906;28;20030;-51
2021/04/29 11:06:04;;;;;;;10.67;4.43;;;;;;;;;;4977580;28;20042;-52
2021/04/29 11:08:34;;;;;;;12.23;7.85;;;;;;;;;;4977457;28;20335;-50
2021/04/29 11:11:01;;;;;;;11.37;7.57;;;;;;;;;;4977479;28;20486;-51
2021/04/29 11:13:27;;;;;;;10.20;5.13;;;;;;;;;;4977533;28;20035;-50
2021/04/29 11:15:57;;;;;;;9.63;5.65;;;;;;;;;;4977215;28;20054;-49
2021/04/29 11:18:24;;;;;;;7.70;5.03;;;;;;;;;;4977647;28;20110;-50
2021/04/29 11:20:57;;;;;;;10.27;6.00;;;;;;;;;;4977283;28;20030;-55
2021/04/29 11:23:39;;;;;;;10.65;7.13;;;;;;;;;;4977358;28;20027;-50
2021/04/29 11:26:05;;;;;;;10.07;5.70;;;;;;;;;;4977422;28;20055;-51
2021/04/29 11:28:32;;;;;;;11.63;6.80;;;;;;;;;;4977732;28;20026;-52
2021/04/29 11:30:58;;;;;;;12.70;5.22;;;;;;;;;;4977231;28;20027;-50
2021/04/29 11:33:34;;;;;;;9.20;5.25;;;;;;;;;;4977304;28;20468;-48
2021/04/29 11:36:04;;;;;;;8.02;4.93;;;;;;;;;;4976599;28;20434;-49
2021/04/29 11:38:33;;;;;;;9.13;5.38;;;;;;;;;;4977286;28;20067;-51
2021/04/29 11:40:59;;;;;;;6.88;4.30;;;;;;;;;;4976932;28;20034;-50
2021/04/29 11:43:25;;;;;;;8.38;4.43;;;;;;;;;;4977291;28;20034;-51
2021/04/29 11:45:53;;;;;;;8.80;5.03;;;;;;;;;;4976759;28;20034;-49
2021/04/29 11:48:22;;;;;;;5.40;3.20;;;;;;;;;;4977014;28;20043;-51
2021/04/29 11:50:53;;;;;;;7.35;3.40;;;;;;;;;;4976824;28;20031;-50
2021/04/29 11:53:25;;;;;;;9.38;3.22;;;;;;;;;;4977064;28;20027;-49
2021/04/29 11:55:57;;;;;;;8.38;2.55;;;;;;;;;;4977148;28;20484;-49
2021/04/29 11:58:24;;;;;;;4.63;2.63;;;;;;;;;;4977020;28;20384;-49
2021/04/29 12:00:53;;;;;;;5.25;2.85;;;;;;;;;;4977051;28;20399;-49
2021/04/29 12:03:21;;;;;;;4.05;2.70;;;;;;;;;;4976739;28;20045;-50
2021/04/29 12:05:48;;;;;;;10.68;3.10;;;;;;;;;;4976408;28;20027;-48
2021/04/29 12:08:18;;;;;;;4.20;2.92;;;;;;;;;;4976446;28;20031;-49
2021/04/29 12:10:46;;;;;;;10.97;3.07;;;;;;;;;;4959574;28;20090;-49
2021/04/29 12:13:12;;;;;;;8.50;2.67;;;;;;;;;;4976413;28;20023;-49
2021/04/29 12:15:38;;;;;;;7.38;2.95;;;;;;;;;;4976311;28;20034;-49
2021/04/29 12:18:04;;;;;;;9.40;2.50;;;;;;;;;;4976408;28;20031;-50
2021/04/29 12:20:31;;;;;;;4.25;1.80;;;;;;;;;;4976101;28;20122;-47
2021/04/29 12:22:58;;;;;;;4.50;1.90;;;;;;;;;;4973137;28;20035;-50
2021/04/29 12:25:24;;;;;;;6.85;2.00;;;;;;;;;;4975021;28;20023;-50
2021/04/29 12:27:50;;;;;;;4.65;2.25;;;;;;;;;;4976252;28;20030;-55
2021/04/29 12:30:16;;;;;;;5.18;2.03;;;;;;;;;;4975929;28;20038;-55
2021/04/29 12:32:45;;;;;;;11.88;3.83;;;;;;;;;;4976088;28;20226;-56
2021/04/29 12:35:29;;;;;;;7.18;2.83;;;;;;;;;;4976011;28;20039;-51
2021/04/29 12:37:55;;;;;;;23.67;12.65;;;;;;;;;;4975726;28;20019;-54
2021/04/29 12:40:36;;;;;;;11.20;3.47;;;;;;;;;;4975857;28;20141;-53
2021/04/29 12:43:11;;;;;;;19.65;11.40;;;;;;;;;;4975733;28;20050;-54
2021/04/29 12:45:54;;;;;;;8.15;2.40;;;;;;;;;;4975870;28;20455;-59
2021/04/29 12:48:28;;;;;;;32.40;19.02;;;;;;;;;;4974691;28;20038;-54
2021/04/29 12:51:00;;;;;;;10.35;6.00;;;;;;;;;;4975415;28;20019;-55
2021/04/29 12:53:27;;;;;;;12.85;5.57;;;;;;;;;;4975473;28;20301;-54
2021/04/29 12:55:53;;;;;;;27.23;18.27;;;;;;;;;;4975773;28;20022;-53
2021/04/29 12:58:28;;;;;;;23.60;16.20;;;;;;;;;;4975460;28;20035;-56
2021/04/29 13:00:55;;;;;;;12.57;6.93;;;;;;;;;;4975185;28;20038;-58
2021/04/29 13:03:32;;;;;;;33.90;21.77;;;;;;;;;;4975403;28;20388;-54
2021/04/29 13:06:06;;;;;;;7.68;2.80;;;;;;;;;;4975247;28;20023;-55
2021/04/29 13:08:45;;;;;;;12.30;6.78;;;;;;;;;;4975073;28;20038;-55
2021/04/29 13:11:11;;;;;;;17.48;8.27;;;;;;;;;;4975231;28;20030;-54
2021/04/29 13:13:37;;;;;;;37.60;23.48;;;;;;;;;;4975311;28;20082;-57
2021/04/29 13:16:03;;;;;;;14.90;8.98;;;;;;;;;;4975477;28;20372;-53
2021/04/29 13:18:29;;;;;;;10.98;4.55;;;;;;;;;;4975157;28;20094;-58
2021/04/29 13:20:55;;;;;;;12.63;4.35;;;;;;;;;;4975222;28;20030;-53
2021/04/29 13:23:24;;;;;;;6.05;2.75;;;;;;;;;;4975008;28;20027;-52
2021/04/29 13:25:50;;;;;;;9.95;4.55;;;;;;;;;;4975195;28;20023;-55
2021/04/29 13:28:16;;;;;;;4.80;2.13;;;;;;;;;;4975117;28;20027;-55
2021/04/29 13:30:42;;;;;;;17.67;8.15;;;;;;;;;;4975183;28;20054;-54
2021/04/29 13:33:10;;;;;;;24.77;12.32;;;;;;;;;;4957545;28;20071;-53
2021/04/29 13:35:37;;;;;;;73.13;51.08;;;;;;;;;;4974880;28;20469;-53
2021/04/29 13:38:03;;;;;;;84.20;56.40;;;;;;;;;;4974712;28;20030;-56
2021/04/29 13:40:29;;;;;;;33.40;20.98;;;;;;;;;;4974572;28;20545;-57
2021/04/29 13:42:59;;;;;;;55.22;31.92;;;;;;;;;;4974689;28;20023;-55
2021/04/29 13:45:26;;;;;;;38.10;23.13;;;;;;;;;;4974762;28;20039;-53
2021/04/29 13:47:52;;;;;;;25.00;16.40;;;;;;;;;;4974460;28;20070;-55
2021/04/29 13:50:18;;;;;;;41.03;18.60;;;;;;;;;;4974618;28;20027;-58
2021/04/29 13:52:44;;;;;;;24.52;16.90;;;;;;;;;;4974752;28;20035;-53
2021/04/29 13:55:10;;;;;;;63.05;37.53;;;;;;;;;;4974769;28;20067;-53
2021/04/29 13:57:36;;;;;;;32.13;20.42;;;;;;;;;;4974571;28;20030;-52
2021/04/29 14:00:03;;;;;;;74.60;44.83;;;;;;;;;;4974240;28;20046;-54
2021/04/29 14:02:29;;;;;;;26.65;13.27;;;;;;;;;;4974602;28;20045;-52
2021/04/29 14:04:58;;;;;;;18.48;10.30;;;;;;;;;;4974830;28;20086;-55
2021/04/29 14:07:26;;;;;;;73.30;45.75;;;;;;;;;;4974304;28;20530;-52
2021/04/29 14:09:52;;;;;;;10.13;4.68;;;;;;;;;;4974370;28;20026;-49
2021/04/29 14:12:20;;;;;;;16.45;9.70;;;;;;;;;;4974326;28;20539;-50
2021/04/29 14:14:47;;;;;;;10.48;4.35;;;;;;;;;;4974501;28;20526;-53
2021/04/29 14:17:13;;;;;;;12.18;4.65;;;;;;;;;;4974301;28;20077;-53
2021/04/29 14:19:41;;;;;;;17.27;12.13;;;;;;;;;;4974330;28;20487;-54
2021/04/29 14:22:08;;;;;;;10.40;6.15;;;;;;;;;;4974669;28;20168;-55
2021/04/29 14:24:34;;;;;;;17.15;6.30;;;;;;;;;;4974301;28;20034;-55